Time;durP1;ratioP1;P1;durP2;ratioP2;P2;SDS_P1;SDS_P2;PMS_P1;PMS_P2;Temp;Humidity;BMP_temperature;BMP_pressure;BME280_temperature;BME280_humidity;BME280_pressure;Samples;Min_cycle;Max_cycle;Signal;HPM_P1;HPM_P2
2024/02/16 00:00:54;;;;;;;485.25;87.72;;;4.60;88.20;;;;;;4970171;28;112781;-51
2024/02/16 00:03:20;;;;;;;274.60;82.18;;;4.50;88.20;;;;;;4967716;28;112904;-51
2024/02/16 00:05:46;;;;;;;197.90;68.32;;;4.50;88.30;;;;;;4969883;28;114468;-51
2024/02/16 00:08:13;;;;;;;96.70;61.50;;;4.60;88.00;;;;;;4970685;28;113696;-51
2024/02/16 00:10:38;;;;;;;197.43;68.75;;;4.70;87.40;;;;;;4977942;28;112792;-51
2024/02/16 00:13:04;;;;;;;158.80;64.28;;;4.60;87.10;;;;;;4969358;28;112780;-51
2024/02/16 00:15:30;;;;;;;294.20;70.70;;;4.50;87.50;;;;;;4968592;28;113399;-51
2024/02/16 00:17:55;;;;;;;434.20;86.72;;;4.40;87.20;;;;;;4972259;28;113829;-51
2024/02/16 00:20:23;;;;;;;197.90;71.72;;;4.30;87.80;;;;;;4969136;28;112557;-51
2024/02/16 00:22:49;;;;;;;551.83;85.85;;;4.30;88.30;;;;;;4968944;28;113297;-51
2024/02/16 00:25:15;;;;;;;460.77;82.35;;;4.30;88.00;;;;;;4968215;28;113750;-51
2024/02/16 00:27:41;;;;;;;389.00;85.45;;;4.20;88.80;;;;;;4976520;28;112594;-51
2024/02/16 00:30:10;;;;;;;142.75;71.88;;;4.20;88.80;;;;;;4976939;28;112579;-51
2024/02/16 00:32:36;;;;;;;160.52;65.18;;;4.40;88.80;;;;;;4982216;28;113056;-51
2024/02/16 00:35:03;;;;;;;236.07;71.88;;;4.60;88.10;;;;;;4983659;28;114413;-51
2024/02/16 00:37:28;;;;;;;166.13;67.07;;;4.40;87.70;;;;;;4971075;28;113606;-51
2024/02/16 00:39:55;;;;;;;158.13;67.03;;;4.60;88.40;;;;;;4973803;28;112952;-51
2024/02/16 00:42:22;;;;;;;125.18;65.45;;;4.60;88.00;;;;;;4973775;28;112803;-52
2024/02/16 00:44:49;;;;;;;190.00;70.20;;;4.50;88.10;;;;;;4967935;28;113197;-52
2024/02/16 00:47:16;;;;;;;200.63;66.45;;;4.60;88.20;;;;;;4967783;28;114055;-51
2024/02/16 00:49:44;;;;;;;356.23;84.40;;;4.80;88.10;;;;;;4978818;28;112782;-52
2024/02/16 00:52:10;;;;;;;275.90;82.47;;;4.70;88.00;;;;;;4970375;28;114249;-52
2024/02/16 00:54:36;;;;;;;300.98;85.13;;;4.70;88.40;;;;;;4967589;28;113159;-51
2024/02/16 00:57:02;;;;;;;407.27;84.55;;;4.60;88.60;;;;;;4979851;28;112744;-51
2024/02/16 00:59:31;;;;;;;224.55;75.65;;;4.60;88.70;;;;;;4974676;28;112675;-51
2024/02/16 01:01:57;;;;;;;292.05;82.55;;;4.60;88.70;;;;;;4972085;28;113274;-51
2024/02/16 01:04:23;;;;;;;375.25;89.68;;;4.70;88.50;;;;;;4982004;28;113206;-51
2024/02/16 01:06:49;;;;;;;195.50;82.75;;;4.60;88.60;;;;;;4969895;28;112942;-51
2024/02/16 01:09:15;;;;;;;552.75;97.38;;;4.60;88.90;;;;;;4973158;28;112528;-51
2024/02/16 01:11:44;;;;;;;346.42;113.55;;;4.50;88.70;;;;;;4973447;28;113099;-51
2024/02/16 01:14:09;;;;;;;445.23;115.07;;;4.40;89.20;;;;;;4967298;28;113320;-51
2024/02/16 01:16:35;;;;;;;439.63;113.90;;;4.50;89.50;;;;;;4979773;28;113004;-51
2024/02/16 01:19:01;;;;;;;241.13;86.25;;;4.50;89.40;;;;;;4967213;28;112590;-51
2024/02/16 01:21:27;;;;;;;521.63;111.05;;;4.70;89.40;;;;;;4969323;28;113177;-51
2024/02/16 01:23:53;;;;;;;449.05;106.38;;;4.60;89.00;;;;;;4976230;28;113981;-51
2024/02/16 01:26:19;;;;;;;546.45;113.85;;;4.50;89.20;;;;;;4967038;28;113948;-52
2024/02/16 01:28:44;;;;;;;523.40;129.30;;;4.50;89.30;;;;;;4968283;28;112735;-51
2024/02/16 01:31:10;;;;;;;503.02;127.63;;;4.50;89.70;;;;;;4968051;28;112744;-51
2024/02/16 01:33:37;;;;;;;565.00;132.70;;;4.50;89.60;;;;;;4982783;28;113168;-51
2024/02/16 01:36:03;;;;;;;569.88;142.90;;;4.60;89.50;;;;;;4982102;28;113912;-51
2024/02/16 01:38:29;;;;;;;651.03;153.48;;;4.60;89.60;;;;;;4975994;28;112817;-52
2024/02/16 01:40:54;;;;;;;571.20;163.55;;;4.50;90.10;;;;;;4967917;28;112814;-51
2024/02/16 01:43:21;;;;;;;554.05;148.65;;;4.60;90.40;;;;;;4973045;28;113535;-51
2024/02/16 01:45:46;;;;;;;407.48;143.20;;;4.50;90.30;;;;;;4965590;28;112984;-51
2024/02/16 01:48:14;;;;;;;620.20;151.18;;;4.60;90.30;;;;;;4970605;28;113242;-51
2024/02/16 01:50:43;;;;;;;554.95;155.82;;;4.60;89.80;;;;;;4973312;28;112794;-52
2024/02/16 01:53:11;;;;;;;507.80;162.80;;;4.50;89.80;;;;;;4978687;28;114324;-52
2024/02/16 01:55:36;;;;;;;561.33;154.10;;;4.50;90.00;;;;;;4965396;28;113742;-51
2024/02/16 01:58:04;;;;;;;411.40;138.57;;;4.30;89.70;;;;;;4966239;28;112764;-51
2024/02/16 02:00:30;;;;;;;368.90;132.35;;;4.40;90.10;;;;;;4999485;28;112857;-51
2024/02/16 02:02:57;;;;;;;359.30;124.57;;;4.50;89.80;;;;;;4965452;28;113142;-51
2024/02/16 02:05:23;;;;;;;561.53;156.77;;;4.40;89.20;;;;;;4972342;28;113097;-51
2024/02/16 02:07:49;;;;;;;534.33;153.43;;;4.40;89.50;;;;;;4966361;28;112735;-52
2024/02/16 02:10:15;;;;;;;231.77;121.00;;;4.40;89.70;;;;;;4966618;28;112728;-51
2024/02/16 02:12:42;;;;;;;356.60;129.02;;;4.50;89.60;;;;;;4962988;28;114557;-51
2024/02/16 02:15:09;;;;;;;482.08;141.40;;;4.50;89.40;;;;;;4971170;28;112902;-51
2024/02/16 02:17:35;;;;;;;381.70;119.03;;;4.40;89.20;;;;;;4971757;28;112657;-51
2024/02/16 02:20:03;;;;;;;310.65;114.20;;;4.40;89.30;;;;;;4970145;28;112693;-52
2024/02/16 02:22:29;;;;;;;356.98;111.40;;;4.40;89.20;;;;;;4966221;28;114511;-51
2024/02/16 02:24:58;;;;;;;229.70;121.18;;;4.40;89.20;;;;;;4966625;28;113695;-52
2024/02/16 02:27:23;;;;;;;221.55;103.05;;;4.40;89.60;;;;;;4969521;28;112786;-52
2024/02/16 02:29:49;;;;;;;266.73;106.45;;;4.50;89.50;;;;;;4975039;28;112744;-51
2024/02/16 02:32:15;;;;;;;377.20;107.75;;;4.50;89.30;;;;;;4972105;28;114446;-51
2024/02/16 02:34:41;;;;;;;223.60;88.25;;;4.40;88.80;;;;;;4981617;28;112851;-51
2024/02/16 02:37:06;;;;;;;457.23;125.07;;;4.60;88.80;;;;;;4974487;28;113062;-51
2024/02/16 02:39:33;;;;;;;411.10;132.82;;;4.40;88.90;;;;;;4967183;28;112627;-51
2024/02/16 02:41:58;;;;;;;534.75;128.95;;;4.30;89.70;;;;;;4979930;28;114714;-53
2024/02/16 02:44:25;;;;;;;295.00;109.20;;;4.30;89.90;;;;;;4981226;28;112595;-52
2024/02/16 02:46:51;;;;;;;256.63;106.03;;;4.40;89.80;;;;;;4984631;28;112897;-52
2024/02/16 02:49:17;;;;;;;167.93;89.43;;;4.50;89.40;;;;;;4967007;28;112914;-51
2024/02/16 02:51:43;;;;;;;514.22;114.00;;;4.50;89.20;;;;;;4976820;28;113260;-51
2024/02/16 02:54:08;;;;;;;487.65;116.38;;;4.40;89.10;;;;;;4983095;28;113631;-52
2024/02/16 02:56:34;;;;;;;544.00;126.35;;;4.30;89.30;;;;;;4984867;28;112704;-51
2024/02/16 02:59:00;;;;;;;677.33;119.85;;;4.30;89.10;;;;;;4974568;28;112959;-51
2024/02/16 03:01:26;;;;;;;520.88;114.78;;;4.30;88.90;;;;;;4978306;28;113291;-51
2024/02/16 03:03:51;;;;;;;475.85;109.50;;;4.30;89.20;;;;;;4983848;28;113913;-52
2024/02/16 03:06:20;;;;;;;442.05;105.85;;;4.30;89.40;;;;;;4984394;28;112570;-51
2024/02/16 03:08:46;;;;;;;414.83;113.22;;;4.30;89.30;;;;;;4973337;28;112651;-51
2024/02/16 03:11:12;;;;;;;376.15;119.90;;;4.30;89.20;;;;;;4978041;28;116115;-51
2024/02/16 03:13:38;;;;;;;395.70;117.70;;;4.30;89.40;;;;;;5015730;28;113017;-51
2024/02/16 03:16:04;;;;;;;309.42;121.30;;;4.30;89.30;;;;;;4985011;28;112714;-51
2024/02/16 03:18:34;;;;;;;115.18;86.45;;;4.40;89.60;;;;;;4970885;28;112784;-51
2024/02/16 03:21:00;;;;;;;152.38;85.00;;;4.50;89.40;;;;;;4970396;28;114645;-52
2024/02/16 03:23:25;;;;;;;169.68;82.93;;;4.40;89.00;;;;;;4984256;28;113131;-51
2024/02/16 03:25:51;;;;;;;180.32;87.07;;;4.50;89.10;;;;;;4977115;28;112541;-51
2024/02/16 03:28:17;;;;;;;248.13;89.95;;;4.60;88.90;;;;;;4981611;28;112760;-51
2024/02/16 03:30:44;;;;;;;308.70;92.55;;;4.60;89.10;;;;;;4987910;28;113612;-51
2024/02/16 03:33:10;;;;;;;509.25;104.85;;;4.50;89.10;;;;;;4982200;28;114235;-51
2024/02/16 03:35:36;;;;;;;404.25;108.00;;;4.60;89.40;;;;;;4973057;28;112881;-52
2024/02/16 03:38:03;;;;;;;325.95;91.32;;;4.60;89.30;;;;;;4979689;28;112744;-51
2024/02/16 03:40:29;;;;;;;309.60;96.15;;;4.60;89.20;;;;;;4973512;28;113317;-52
2024/02/16 03:42:55;;;;;;;206.73;91.13;;;4.60;89.10;;;;;;4987800;28;112749;-51
2024/02/16 03:45:23;;;;;;;140.95;77.28;;;4.60;89.20;;;;;;4979338;28;112622;-52
2024/02/16 03:47:48;;;;;;;139.20;77.50;;;4.60;89.00;;;;;;4989755;28;113119;-52
2024/02/16 03:50:15;;;;;;;126.85;70.32;;;4.70;89.00;;;;;;4982656;28;113274;-52
2024/02/16 03:52:41;;;;;;;144.15;73.35;;;4.80;88.60;;;;;;4978300;28;113829;-51
2024/02/16 03:55:07;;;;;;;222.40;72.45;;;4.60;88.40;;;;;;4970097;28;113293;-51
2024/02/16 03:57:33;;;;;;;287.05;99.25;;;4.60;88.50;;;;;;4978907;28;112700;-51
2024/02/16 03:59:59;;;;;;;214.20;96.82;;;4.50;89.10;;;;;;4985849;28;114667;-52
2024/02/16 04:02:25;;;;;;;272.05;101.18;;;4.40;89.20;;;;;;4975591;28;113098;-51
2024/02/16 04:04:51;;;;;;;403.52;120.07;;;4.40;89.40;;;;;;4976580;28;112609;-51
2024/02/16 04:07:17;;;;;;;548.05;144.23;;;4.40;89.50;;;;;;4983230;28;115212;-51
2024/02/16 04:09:43;;;;;;;526.38;138.20;;;4.20;89.20;;;;;;4981396;28;113179;-51
2024/02/16 04:12:10;;;;;;;314.65;126.80;;;4.20;89.90;;;;;;4986678;28;113566;-51
2024/02/16 04:14:35;;;;;;;394.27;130.77;;;4.20;90.30;;;;;;4977968;28;113224;-52
2024/02/16 04:17:01;;;;;;;483.65;160.75;;;4.20;90.30;;;;;;4974638;28;112650;-52
2024/02/16 04:19:27;;;;;;;439.77;154.40;;;4.10;90.40;;;;;;4978566;28;113106;-51
2024/02/16 04:21:52;;;;;;;374.85;147.82;;;4.00;90.50;;;;;;4983326;28;113839;-51
2024/02/16 04:24:18;;;;;;;235.50;126.40;;;4.00;90.60;;;;;;4979537;28;112933;-51
2024/02/16 04:26:44;;;;;;;206.20;119.50;;;4.10;90.70;;;;;;4979435;28;112641;-52
2024/02/16 04:29:11;;;;;;;142.95;101.45;;;4.20;90.00;;;;;;4980826;28;113253;-52
2024/02/16 04:31:40;;;;;;;225.90;107.68;;;4.20;89.50;;;;;;4975186;28;114138;-52
2024/02/16 04:34:06;;;;;;;140.40;90.45;;;4.20;89.10;;;;;;4980329;28;112943;-51
2024/02/16 04:36:31;;;;;;;185.73;98.40;;;4.20;88.40;;;;;;4985080;28;112769;-51
2024/02/16 04:38:57;;;;;;;138.30;86.43;;;3.90;87.90;;;;;;4978948;28;113296;-51
2024/02/16 04:41:22;;;;;;;181.35;92.80;;;4.00;88.70;;;;;;4971144;28;112997;-51
2024/02/16 04:43:49;;;;;;;121.18;75.40;;;3.90;88.10;;;;;;4979842;28;112771;-51
2024/02/16 04:46:17;;;;;;;115.20;68.30;;;4.00;88.10;;;;;;4987971;28;112735;-51
2024/02/16 04:48:43;;;;;;;107.10;69.57;;;4.00;88.00;;;;;;4985934;28;114639;-51
2024/02/16 04:51:10;;;;;;;190.02;78.53;;;4.00;88.30;;;;;;4982831;28;113102;-51
2024/02/16 04:53:36;;;;;;;147.45;73.22;;;3.90;88.10;;;;;;4981091;28;115251;-51
2024/02/16 04:56:04;;;;;;;175.93;75.80;;;3.80;88.30;;;;;;4982433;28;112799;-51
2024/02/16 04:58:30;;;;;;;150.57;75.85;;;3.80;88.10;;;;;;4985498;28;115519;-51
2024/02/16 05:00:56;;;;;;;90.47;63.38;;;3.80;88.10;;;;;;4981652;28;112667;-51
2024/02/16 05:03:22;;;;;;;162.00;72.65;;;3.80;88.10;;;;;;4982904;28;112621;-51
2024/02/16 05:05:48;;;;;;;115.97;70.18;;;3.80;88.20;;;;;;4984668;28;112750;-51
2024/02/16 05:08:14;;;;;;;62.63;55.85;;;3.90;88.00;;;;;;4983793;28;113295;-51
2024/02/16 05:10:40;;;;;;;58.38;52.00;;;4.00;88.00;;;;;;4974050;28;113056;-51
2024/02/16 05:13:05;;;;;;;143.02;59.17;;;4.10;87.10;;;;;;4976987;28;114149;-51
2024/02/16 05:15:31;;;;;;;117.20;56.05;;;4.00;86.80;;;;;;4982605;28;112788;-52
2024/02/16 05:17:57;;;;;;;70.15;52.95;;;3.80;86.90;;;;;;4986473;28;113835;-51
2024/02/16 05:20:23;;;;;;;61.90;50.95;;;3.80;87.20;;;;;;4987378;28;114683;-51
2024/02/16 05:22:49;;;;;;;55.78;48.08;;;3.80;87.20;;;;;;4988263;28;112534;-51
2024/02/16 05:25:16;;;;;;;56.25;46.35;;;3.80;86.80;;;;;;4988210;28;112672;-51
2024/02/16 05:27:41;;;;;;;53.90;48.22;;;3.80;86.80;;;;;;4977812;28;113189;-52
2024/02/16 05:30:11;;;;;;;195.63;57.13;;;3.70;87.00;;;;;;4979749;28;114387;-51
2024/02/16 05:32:37;;;;;;;76.10;54.15;;;3.60;86.70;;;;;;4985342;28;113340;-51
2024/02/16 05:35:16;;;;;;;55.38;49.60;;;3.70;87.20;;;;;;4985346;28;112823;-52
2024/02/16 05:37:51;;;;;;;59.80;47.65;;;3.80;87.10;;;;;;4971199;28;114685;-51
2024/02/16 05:40:28;;;;;;;63.50;47.50;;;3.90;86.60;;;;;;4971096;28;113890;-51
2024/02/16 05:42:58;;;;;;;62.33;48.10;;;3.80;86.90;;;;;;4986709;28;112550;-51
2024/02/16 05:45:25;;;;;;;56.20;46.78;;;3.80;86.90;;;;;;4987927;28;113182;-52
2024/02/16 05:47:51;;;;;;;46.97;42.10;;;3.60;87.20;;;;;;4978180;28;113410;-51
2024/02/16 05:50:17;;;;;;;71.07;48.13;;;3.80;87.40;;;;;;4974132;28;112698;-51
2024/02/16 05:52:44;;;;;;;70.60;47.53;;;3.70;87.40;;;;;;4987392;28;112667;-51
2024/02/16 05:55:10;;;;;;;106.15;59.58;;;3.80;87.50;;;;;;4987324;28;112633;-51
2024/02/16 05:57:37;;;;;;;91.82;56.67;;;3.70;87.90;;;;;;4985816;28;113247;-51
2024/02/16 06:00:08;;;;;;;78.82;56.22;;;3.70;88.20;;;;;;4980269;28;113102;-51
2024/02/16 06:02:34;;;;;;;93.60;55.97;;;3.80;88.10;;;;;;4967563;28;112760;-52
2024/02/16 06:05:02;;;;;;;67.80;54.78;;;4.00;87.80;;;;;;4980117;28;112822;-52
2024/02/16 06:07:28;;;;;;;147.85;58.78;;;4.00;87.70;;;;;;4977812;28;114855;-51
2024/02/16 06:09:58;;;;;;;135.80;60.28;;;3.90;87.60;;;;;;4975034;28;113827;-52
2024/02/16 06:12:23;;;;;;;452.85;90.03;;;3.90;88.10;;;;;;4987406;28;112552;-51
2024/02/16 06:14:49;;;;;;;189.75;67.72;;;3.70;88.20;;;;;;4987547;28;112772;-52
2024/02/16 06:17:16;;;;;;;280.33;78.43;;;3.90;88.80;;;;;;4975508;28;113147;-51
2024/02/16 06:19:42;;;;;;;102.43;66.72;;;3.80;88.90;;;;;;4986098;28;113606;-51
2024/02/16 06:22:08;;;;;;;168.70;60.33;;;4.00;89.20;;;;;;4976084;28;112828;-52
2024/02/16 06:24:34;;;;;;;195.50;70.18;;;3.90;88.60;;;;;;4986634;28;112815;-52
2024/02/16 06:27:00;;;;;;;411.77;81.45;;;4.00;88.70;;;;;;4983549;28;113238;-51
2024/02/16 06:29:25;;;;;;;231.43;80.20;;;3.90;88.60;;;;;;4966483;28;112778;-51
2024/02/16 06:31:51;;;;;;;478.45;93.80;;;3.90;88.70;;;;;;4984444;28;112662;-51
2024/02/16 06:34:19;;;;;;;349.67;85.40;;;3.80;88.80;;;;;;4982644;28;112953;-51
2024/02/16 06:36:45;;;;;;;219.50;87.28;;;3.90;89.30;;;;;;4969781;28;117136;-52
2024/02/16 06:39:16;;;;;;;371.30;93.05;;;4.00;89.40;;;;;;4982565;28;114264;-51
2024/02/16 06:41:43;;;;;;;397.52;100.00;;;3.90;88.90;;;;;;4978621;28;114738;-52
2024/02/16 06:44:09;;;;;;;304.00;106.47;;;3.50;89.60;;;;;;5006381;28;114273;-51
2024/02/16 06:52:40;;;;;;;209.80;112.60;;;3.80;89.90;;;;;;5007225;28;113133;-48
2024/02/16 06:55:06;;;;;;;315.13;108.32;;;3.90;89.80;;;;;;4982600;28;112960;-49
2024/02/16 06:57:31;;;;;;;456.98;110.32;;;3.90;89.60;;;;;;4989271;28;112806;-49
2024/02/16 06:59:57;;;;;;;427.23;118.75;;;3.70;88.90;;;;;;4991509;28;114726;-48
2024/02/16 07:02:23;;;;;;;412.17;109.53;;;3.70;89.80;;;;;;4982396;28;113690;-49
2024/02/16 07:04:49;;;;;;;434.77;115.53;;;3.80;89.90;;;;;;4968136;28;113104;-49
2024/02/16 07:07:14;;;;;;;516.72;120.05;;;3.80;89.60;;;;;;4973990;28;112656;-49
2024/02/16 07:09:41;;;;;;;599.63;124.85;;;3.90;89.80;;;;;;4977493;28;114417;-49
2024/02/16 07:12:07;;;;;;;392.33;124.05;;;3.80;89.20;;;;;;4979063;28;112594;-49
2024/02/16 07:14:33;;;;;;;596.78;139.27;;;3.80;89.30;;;;;;4970657;28;113388;-49
2024/02/16 07:16:58;;;;;;;525.65;130.98;;;3.90;89.80;;;;;;4964946;28;112776;-49
2024/02/16 07:19:24;;;;;;;510.85;128.95;;;3.90;89.70;;;;;;4962248;28;113372;-49
2024/02/16 07:21:50;;;;;;;602.28;127.78;;;3.90;89.40;;;;;;4967273;28;112967;-49
2024/02/16 07:24:16;;;;;;;551.40;136.07;;;3.90;89.50;;;;;;4966564;28;112924;-49
2024/02/16 07:26:42;;;;;;;317.15;125.15;;;3.90;89.50;;;;;;4973022;28;113239;-49
2024/02/16 07:29:08;;;;;;;544.05;121.55;;;4.00;89.70;;;;;;4967968;28;113193;-49
2024/02/16 07:31:34;;;;;;;413.90;110.90;;;4.00;89.00;;;;;;4964564;28;112663;-49
2024/02/16 07:34:03;;;;;;;490.50;120.40;;;4.10;89.50;;;;;;4962264;28;112734;-49
2024/02/16 07:36:29;;;;;;;159.80;88.78;;;4.10;89.40;;;;;;4961981;28;112693;-49
2024/02/16 07:38:55;;;;;;;272.85;81.55;;;4.40;89.60;;;;;;4962440;28;113808;-49
2024/02/16 07:41:21;;;;;;;395.85;97.78;;;4.50;88.90;;;;;;4966468;28;114162;-49
2024/02/16 07:43:46;;;;;;;312.92;103.75;;;4.30;89.00;;;;;;4972391;28;112864;-50
2024/02/16 07:46:12;;;;;;;392.45;113.68;;;4.30;89.10;;;;;;4966096;28;112952;-49
2024/02/16 07:48:39;;;;;;;167.02;84.88;;;4.30;89.10;;;;;;4966853;28;113163;-50
2024/02/16 07:51:05;;;;;;;319.38;83.93;;;4.50;89.40;;;;;;4974879;28;113028;-49
2024/02/16 07:53:31;;;;;;;363.10;82.88;;;4.60;88.80;;;;;;4970598;28;113014;-50
2024/02/16 07:55:58;;;;;;;170.90;74.65;;;4.80;88.80;;;;;;4966858;28;112852;-50
2024/02/16 07:58:24;;;;;;;168.40;69.25;;;4.90;88.70;;;;;;4962967;28;113429;-50
2024/02/16 08:00:50;;;;;;;382.42;88.95;;;5.00;88.20;;;;;;4975247;28;112604;-50
2024/02/16 08:03:16;;;;;;;469.80;94.55;;;4.90;87.90;;;;;;4966814;28;113086;-50
2024/02/16 08:05:42;;;;;;;431.23;101.68;;;4.80;88.20;;;;;;4949625;28;112706;-50
2024/02/16 08:08:07;;;;;;;337.63;93.03;;;4.80;88.80;;;;;;4958373;28;113198;-49
2024/02/16 08:10:34;;;;;;;306.48;99.07;;;4.80;89.10;;;;;;4954984;28;113998;-50
2024/02/16 08:13:00;;;;;;;421.73;90.65;;;5.00;89.30;;;;;;4955965;28;112585;-50
2024/02/16 08:15:25;;;;;;;271.85;92.28;;;4.90;88.30;;;;;;4960028;28;112819;-50
2024/02/16 08:17:51;;;;;;;149.70;72.35;;;5.10;88.80;;;;;;4953405;28;114598;-50
2024/02/16 08:20:17;;;;;;;406.45;93.82;;;5.30;88.50;;;;;;4968843;28;113613;-50
2024/02/16 08:22:43;;;;;;;277.98;82.18;;;5.30;87.40;;;;;;4967601;28;113039;-50
2024/02/16 08:25:09;;;;;;;183.82;74.55;;;5.40;88.00;;;;;;4959277;28;112711;-50
2024/02/16 08:27:35;;;;;;;246.93;71.97;;;5.60;88.00;;;;;;4959340;28;113206;-50
2024/02/16 08:30:03;;;;;;;267.45;73.68;;;5.70;86.90;;;;;;4949851;28;112767;-50
2024/02/16 08:32:29;;;;;;;220.10;74.68;;;5.80;87.30;;;;;;4958951;28;113129;-49
2024/02/16 08:34:55;;;;;;;185.05;70.53;;;6.00;87.30;;;;;;4954777;28;113078;-49
2024/02/16 08:37:21;;;;;;;150.32;71.70;;;6.10;87.20;;;;;;4955200;28;114468;-50
2024/02/16 08:39:47;;;;;;;208.20;66.47;;;6.10;86.70;;;;;;4959794;28;112609;-50
2024/02/16 08:42:13;;;;;;;97.45;60.38;;;6.10;86.30;;;;;;4953924;28;112595;-51
2024/02/16 08:44:40;;;;;;;87.03;61.78;;;6.30;86.60;;;;;;4958766;28;114325;-50
2024/02/16 08:47:07;;;;;;;99.38;60.53;;;6.40;86.40;;;;;;4959019;28;113391;-50
2024/02/16 08:49:34;;;;;;;70.80;57.35;;;6.50;86.10;;;;;;4959390;28;113664;-50
2024/02/16 08:52:00;;;;;;;189.48;61.20;;;6.60;85.80;;;;;;4955860;28;113017;-50
2024/02/16 08:54:25;;;;;;;68.50;54.83;;;6.50;84.00;;;;;;4951918;28;112837;-50
2024/02/16 08:56:53;;;;;;;74.45;55.67;;;6.60;84.80;;;;;;4945867;28;113739;-50
2024/02/16 08:59:19;;;;;;;68.25;55.88;;;6.70;84.30;;;;;;4946698;28;113581;-50
2024/02/16 09:01:44;;;;;;;80.93;57.35;;;6.80;83.90;;;;;;4948089;28;112855;-50
2024/02/16 09:04:10;;;;;;;91.95;59.63;;;6.80;83.90;;;;;;4947951;28;113527;-50
2024/02/16 09:06:36;;;;;;;65.68;55.45;;;6.80;84.10;;;;;;4945191;28;116463;-50
2024/02/16 09:09:02;;;;;;;97.43;60.70;;;7.00;84.20;;;;;;4947371;28;112890;-51
2024/02/16 09:11:28;;;;;;;71.60;55.95;;;6.90;83.80;;;;;;4948252;28;112677;-51
2024/02/16 09:13:54;;;;;;;68.30;57.10;;;7.00;84.30;;;;;;4956293;28;113058;-51
2024/02/16 09:16:20;;;;;;;86.50;60.67;;;6.90;84.30;;;;;;4947370;28;114278;-50
2024/02/16 09:18:47;;;;;;;82.25;58.92;;;7.10;84.20;;;;;;4947571;28;112548;-50
2024/02/16 09:21:13;;;;;;;78.18;56.22;;;7.30;83.60;;;;;;4948587;28;112590;-51
2024/02/16 09:23:40;;;;;;;105.82;60.35;;;7.40;82.80;;;;;;4948523;28;112713;-50
2024/02/16 09:26:05;;;;;;;82.82;56.58;;;7.10;82.80;;;;;;4947229;28;114445;-51
2024/02/16 09:28:31;;;;;;;71.60;58.90;;;7.10;83.40;;;;;;4947191;28;113719;-50
2024/02/16 09:30:58;;;;;;;74.25;57.80;;;7.20;83.50;;;;;;4946929;28;112697;-50
2024/02/16 09:33:24;;;;;;;77.43;59.45;;;7.30;83.40;;;;;;4948622;28;112648;-50
2024/02/16 09:35:50;;;;;;;81.80;61.25;;;7.40;83.30;;;;;;4947371;28;113214;-50
2024/02/16 09:38:16;;;;;;;84.45;62.63;;;7.30;83.60;;;;;;4947361;28;113160;-50
2024/02/16 09:40:42;;;;;;;73.75;62.28;;;7.40;83.40;;;;;;4948299;28;112917;-50
2024/02/16 09:43:08;;;;;;;89.15;64.50;;;7.70;83.40;;;;;;4954949;28;113266;-50
2024/02/16 09:45:34;;;;;;;93.78;60.97;;;7.70;82.60;;;;;;4953745;28;113401;-51
2024/02/16 09:48:01;;;;;;;76.80;58.80;;;7.80;82.50;;;;;;4947826;28;112822;-50
2024/02/16 09:50:28;;;;;;;78.88;61.67;;;7.80;82.20;;;;;;4950097;28;113279;-50
2024/02/16 09:52:56;;;;;;;92.65;65.75;;;7.90;82.30;;;;;;4952301;28;112947;-54
2024/02/16 09:55:22;;;;;;;126.47;70.00;;;8.00;82.50;;;;;;4958441;28;115316;-55
2024/02/16 09:57:58;;;;;;;;;;;8.00;81.40;;;;;;4947138;28;113624;-56
2024/02/16 10:00:24;;;;;;;;;;;8.00;81.40;;;;;;4951465;28;112477;-56
2024/02/16 10:02:49;;;;;;;;;;;7.80;82.20;;;;;;4951431;28;112762;-56
2024/02/16 10:05:17;;;;;;;117.60;68.97;;;8.10;81.90;;;;;;4949524;28;113148;-56
2024/02/16 10:07:43;;;;;;;;;;;8.30;81.70;;;;;;4946973;28;112738;-56
2024/02/16 10:10:24;;;;;;;;;;;8.40;80.80;;;;;;4951047;28;112570;-57
2024/02/16 10:12:50;;;;;;;77.13;62.95;;;8.50;80.40;;;;;;4950590;28;112697;-56
2024/02/16 10:15:21;;;;;;;93.43;70.03;;;8.70;79.90;;;;;;4946543;28;114847;-57
2024/02/16 10:18:06;;;;;;;217.00;100.55;;;8.50;80.00;;;;;;4946789;28;112612;-56
2024/02/16 10:20:34;;;;;;;120.57;81.15;;;8.60;79.80;;;;;;4945336;28;112665;-56
2024/02/16 10:23:04;;;;;;;89.80;69.63;;;8.90;79.40;;;;;;4947751;28;112702;-56
2024/02/16 10:25:29;;;;;;;;;;;8.80;79.80;;;;;;4978082;28;116078;-56
2024/02/16 10:27:58;;;;;;;;;;;9.00;79.10;;;;;;4949913;28;112617;-56
2024/02/16 10:30:33;;;;;;;75.53;65.90;;;8.90;79.40;;;;;;4948735;28;112842;-57
2024/02/16 10:32:59;;;;;;;;;;;8.90;80.10;;;;;;4948263;28;112941;-57
2024/02/16 10:35:26;;;;;;;;;;;9.30;79.20;;;;;;4949425;28;113661;-57
2024/02/16 10:37:52;;;;;;;158.70;84.97;;;9.40;78.50;;;;;;4949003;28;114030;-56
2024/02/16 10:40:19;;;;;;;128.13;80.60;;;9.30;78.30;;;;;;4947367;28;112912;-56
2024/02/16 10:42:51;;;;;;;91.50;71.15;;;9.10;79.10;;;;;;4963058;28;112674;-57
2024/02/16 10:45:17;;;;;;;121.82;71.68;;;9.20;79.00;;;;;;4957734;28;113753;-57
2024/02/16 10:47:43;;;;;;;296.27;98.00;;;9.20;79.00;;;;;;4946815;28;113054;-57
2024/02/16 12:10:17;;;;;;;74.95;67.53;;;19.30;53.10;;;;;;5047134;27;112570;-56
2024/02/16 12:12:43;;;;;;;76.07;68.68;;;20.90;47.50;;;;;;5030471;27;113002;-54
2024/02/16 12:15:11;;;;;;;77.72;70.20;;;21.80;44.20;;;;;;5022611;27;114426;-54
2024/02/16 12:17:37;;;;;;;76.85;69.78;;;20.20;47.50;;;;;;5021278;27;115115;-54
2024/02/16 12:20:03;;;;;;;81.22;73.88;;;21.90;46.30;;;;;;5021766;27;112635;-54
2024/02/16 12:22:28;;;;;;;86.00;78.22;;;25.10;40.10;;;;;;5023190;27;113372;-55
2024/02/16 12:24:54;;;;;;;87.90;80.40;;;24.70;39.90;;;;;;5023580;27;113120;-55
2024/02/16 12:27:20;;;;;;;;;;;25.40;39.00;;;;;;5022599;27;113326;-55
2024/02/16 12:29:45;;;;;;;94.07;85.28;;;27.10;37.00;;;;;;5025012;27;113886;-55
2024/02/16 12:32:11;;;;;;;100.30;91.03;;;27.50;35.90;;;;;;5023415;27;112636;-55
2024/02/16 12:34:40;;;;;;;105.28;95.45;;;27.50;36.00;;;;;;5023315;27;113670;-55
2024/02/16 12:37:10;;;;;;;107.93;98.15;;;26.80;36.50;;;;;;5021904;27;113617;-55
2024/02/16 12:39:35;;;;;;;106.22;96.45;;;27.10;35.60;;;;;;5021959;27;113810;-55
2024/02/16 12:42:01;;;;;;;107.82;97.90;;;27.90;35.90;;;;;;5033336;27;112660;-55
2024/02/16 12:44:27;;;;;;;108.13;98.35;;;29.20;34.40;;;;;;5043067;27;112909;-55
2024/02/16 12:46:52;;;;;;;108.85;98.95;;;30.30;32.90;;;;;;5040962;27;113372;-55
2024/02/16 12:49:21;;;;;;;104.90;95.47;;;29.60;32.50;;;;;;5037976;27;112617;-55
2024/02/16 12:51:48;;;;;;;103.38;94.32;;;29.10;33.80;;;;;;5022544;27;112599;-57
2024/02/16 12:54:16;;;;;;;102.93;94.00;;;29.40;32.80;;;;;;5023087;27;112697;-56
2024/02/16 12:56:44;;;;;;;99.32;90.55;;;28.00;34.50;;;;;;5021470;27;114509;-56
2024/02/16 12:59:10;;;;;;;102.28;93.22;;;28.80;34.40;;;;;;5032878;27;112994;-56
2024/02/16 13:01:35;;;;;;;101.60;92.80;;;28.50;34.30;;;;;;5025286;27;112781;-56
2024/02/16 13:04:01;;;;;;;96.22;88.07;;;28.90;33.90;;;;;;5022738;27;113105;-56
2024/02/16 13:06:27;;;;;;;94.80;86.68;;;27.90;35.70;;;;;;5021571;27;113160;-56
2024/02/16 13:08:53;;;;;;;92.18;84.65;;;28.10;35.20;;;;;;5020751;27;113625;-56
2024/02/16 13:11:19;;;;;;;92.75;85.05;;;28.80;34.70;;;;;;5022638;27;112703;-56
2024/02/16 13:13:44;;;;;;;95.78;87.93;;;28.00;35.60;;;;;;5022651;27;112813;-56
2024/02/16 13:16:10;;;;;;;99.45;91.40;;;27.90;35.70;;;;;;5021530;27;114400;-56
2024/02/16 13:18:36;;;;;;;100.97;92.57;;;28.00;35.40;;;;;;5021287;27;112736;-56
2024/02/16 13:21:01;;;;;;;100.03;91.72;;;27.90;35.30;;;;;;5012543;28;112506;-56
2024/02/16 13:23:28;;;;;;;105.18;96.32;;;27.10;36.90;;;;;;5008488;28;112724;-55
2024/02/16 13:25:54;;;;;;;105.20;96.20;;;25.80;37.80;;;;;;5017393;28;114402;-55
2024/02/16 13:28:20;;;;;;;106.78;97.78;;;24.90;40.00;;;;;;5010157;28;113669;-56
2024/02/16 13:30:46;;;;;;;109.47;100.28;;;26.60;38.20;;;;;;5009464;28;112520;-56
2024/02/16 13:33:12;;;;;;;108.53;99.35;;;26.20;37.90;;;;;;5008052;28;112922;-55
2024/02/16 13:35:37;;;;;;;107.93;98.95;;;27.60;36.20;;;;;;5007819;28;113122;-56
2024/02/16 13:38:04;;;;;;;101.15;92.55;;;27.70;35.80;;;;;;5007571;28;113086;-56
2024/02/16 13:40:29;;;;;;;102.50;94.05;;;27.90;36.10;;;;;;5011079;28;112880;-56